Time;durP1;ratioP1;P1;durP2;ratioP2;P2;SDS_P1;SDS_P2;PMS_P1;PMS_P2;Temp;Humidity;BMP_temperature;BMP_pressure;BME280_temperature;BME280_humidity;BME280_pressure;Samples;Min_cycle;Max_cycle;Signal;HPM_P1;HPM_P2
2022/03/24 00:00:08;;;;;;;73.10;45.38;;;7.00;99.90;;;;;;5076345;28;20052;-81
2022/03/24 00:02:34;;;;;;;76.40;46.58;;;7.00;99.90;;;;;;5094969;28;20032;-81
2022/03/24 00:05:00;;;;;;;74.53;46.78;;;7.00;99.90;;;;;;5102712;28;20036;-81
2022/03/24 00:07:26;;;;;;;74.47;46.28;;;7.00;99.90;;;;;;5098303;28;20035;-81
2022/03/24 00:09:52;;;;;;;74.53;45.92;;;6.90;99.90;;;;;;5092246;28;20126;-82
2022/03/24 00:12:18;;;;;;;72.40;45.15;;;6.90;99.90;;;;;;5090971;28;20047;-81
2022/03/24 00:14:44;;;;;;;72.55;46.55;;;6.90;99.90;;;;;;5094711;28;20044;-81
2022/03/24 00:17:10;;;;;;;79.25;47.42;;;6.90;99.90;;;;;;5095946;28;20411;-82
2022/03/24 00:19:35;;;;;;;73.13;46.42;;;6.80;99.90;;;;;;5077095;28;20040;-81
2022/03/24 00:22:01;;;;;;;75.10;48.80;;;6.80;99.90;;;;;;5102458;28;20046;-81
2022/03/24 00:24:27;;;;;;;69.90;41.97;;;6.70;99.90;;;;;;5103642;28;20060;-80
2022/03/24 00:26:53;;;;;;;71.82;44.78;;;6.70;99.90;;;;;;5104945;28;20036;-81
2022/03/24 00:29:19;;;;;;;72.43;44.40;;;6.70;99.90;;;;;;5083554;28;20039;-81
2022/03/24 00:31:46;;;;;;;77.85;48.00;;;6.60;99.90;;;;;;5097269;28;20081;-81
2022/03/24 00:34:12;;;;;;;81.57;49.10;;;6.60;99.90;;;;;;5095860;28;20052;-81
2022/03/24 00:36:37;;;;;;;81.55;48.22;;;6.60;99.90;;;;;;5095235;28;20051;-81
2022/03/24 00:39:03;;;;;;;80.82;49.95;;;6.80;99.90;;;;;;5092535;28;20040;-80
2022/03/24 00:41:29;;;;;;;76.70;45.25;;;6.50;99.90;;;;;;5093491;28;20047;-81
2022/03/24 00:43:55;;;;;;;76.90;46.85;;;6.50;99.90;;;;;;5092562;28;20037;-81
2022/03/24 00:46:22;;;;;;;77.07;46.15;;;6.50;99.90;;;;;;5090539;28;20040;-80
2022/03/24 00:48:53;;;;;;;78.35;47.90;;;6.50;99.90;;;;;;5094706;28;20100;-80
2022/03/24 00:51:19;;;;;;;96.75;49.53;;;6.50;99.90;;;;;;5096858;28;20123;-80
2022/03/24 00:53:45;;;;;;;84.63;48.75;;;6.50;99.90;;;;;;5095906;28;20040;-81
2022/03/24 00:56:11;;;;;;;75.82;48.33;;;6.50;99.90;;;;;;5092224;28;20477;-80
2022/03/24 00:58:38;;;;;;;76.47;48.33;;;6.50;99.90;;;;;;5094527;28;20079;-81
2022/03/24 01:01:06;;;;;;;74.18;47.50;;;6.50;99.90;;;;;;5094306;28;20048;-80
2022/03/24 01:03:32;;;;;;;84.53;49.42;;;6.40;99.90;;;;;;5095636;28;20029;-80
2022/03/24 01:05:57;;;;;;;80.43;48.72;;;6.40;99.90;;;;;;5094006;28;20044;-80
2022/03/24 01:08:23;;;;;;;85.70;49.85;;;6.40;99.90;;;;;;5096129;28;20036;-81
2022/03/24 01:10:50;;;;;;;83.50;50.70;;;6.40;99.90;;;;;;5088976;28;20123;-80
2022/03/24 01:13:15;;;;;;;82.13;49.03;;;6.40;99.90;;;;;;5096524;28;20059;-80
2022/03/24 01:15:45;;;;;;;85.00;47.58;;;6.40;99.90;;;;;;5099405;28;20036;-81
2022/03/24 01:18:14;;;;;;;78.25;48.40;;;6.40;99.90;;;;;;5104205;28;20109;-80
2022/03/24 01:20:40;;;;;;;80.40;49.10;;;6.40;99.90;;;;;;5114061;28;20040;-80
2022/03/24 01:23:05;;;;;;;84.40;51.75;;;6.30;99.90;;;;;;5114807;28;20039;-80
2022/03/24 01:25:31;;;;;;;85.72;50.40;;;6.30;99.90;;;;;;5104002;28;20513;-80
2022/03/24 01:27:57;;;;;;;86.93;50.28;;;6.30;99.90;;;;;;5095219;28;20418;-80
2022/03/24 01:30:22;;;;;;;84.97;51.95;;;6.30;99.90;;;;;;5091177;28;20048;-80
2022/03/24 01:32:48;;;;;;;91.72;52.88;;;6.20;99.90;;;;;;5095832;28;20043;-80
2022/03/24 01:35:15;;;;;;;93.35;53.58;;;6.20;99.90;;;;;;5096327;28;20127;-80
2022/03/24 01:37:41;;;;;;;88.55;53.15;;;6.10;99.90;;;;;;5093432;28;20481;-80
2022/03/24 01:40:09;;;;;;;87.28;52.58;;;6.10;99.90;;;;;;5096606;28;20076;-80
2022/03/24 01:42:35;;;;;;;;;;;6.10;99.90;;;;;;5090693;28;20507;-80
2022/03/24 01:45:03;;;;;;;98.10;53.17;;;6.00;99.90;;;;;;5096254;28;19963;-81
2022/03/24 01:47:28;;;;;;;85.55;50.13;;;6.00;99.90;;;;;;5096404;28;20071;-81
2022/03/24 01:49:58;;;;;;;89.47;52.92;;;6.00;99.90;;;;;;5092792;28;20040;-81
2022/03/24 01:52:25;;;;;;;96.10;55.63;;;6.00;99.90;;;;;;5094318;28;20075;-81
2022/03/24 01:54:53;;;;;;;99.60;56.42;;;5.90;99.90;;;;;;5095177;28;20048;-80
2022/03/24 01:57:21;;;;;;;98.72;55.38;;;5.90;99.90;;;;;;5095556;28;20111;-81
2022/03/24 01:59:48;;;;;;;92.50;54.90;;;6.70;99.90;;;;;;5094056;28;20461;-81
2022/03/24 02:02:14;;;;;;;82.37;49.77;;;5.90;99.90;;;;;;5092879;28;20376;-81
2022/03/24 02:04:40;;;;;;;82.53;48.35;;;5.90;99.90;;;;;;5096234;28;20110;-80
2022/03/24 02:07:07;;;;;;;91.47;52.65;;;5.90;99.90;;;;;;5094781;28;20067;-81
2022/03/24 02:09:35;;;;;;;95.40;53.70;;;5.80;99.90;;;;;;5094735;28;20032;-80
2022/03/24 02:12:03;;;;;;;98.47;56.13;;;5.80;99.90;;;;;;5096419;28;20398;-81
2022/03/24 02:14:29;;;;;;;100.57;56.30;;;5.80;99.90;;;;;;5096727;28;20040;-81
2022/03/24 02:16:55;;;;;;;91.88;52.20;;;5.70;99.90;;;;;;5102586;28;20059;-80
2022/03/24 02:19:26;;;;;;;102.63;57.47;;;5.70;99.90;;;;;;5105136;28;20095;-81
2022/03/24 02:21:58;;;;;;;91.65;53.63;;;5.70;99.90;;;;;;5101512;28;20050;-80
2022/03/24 02:24:25;;;;;;;100.53;55.15;;;5.70;99.90;;;;;;5097846;28;20050;-81
2022/03/24 02:26:52;;;;;;;95.70;54.28;;;5.60;99.90;;;;;;5096696;28;20495;-81
2022/03/24 02:29:25;;;;;;;95.93;54.92;;;5.60;99.90;;;;;;5097204;28;20066;-81
2022/03/24 02:31:51;;;;;;;95.72;56.78;;;5.60;99.90;;;;;;5096327;28;20055;-81
2022/03/24 02:34:40;;;;;;;98.95;56.40;;;5.50;99.90;;;;;;5096575;28;20402;-80
2022/03/24 02:37:14;;;;;;;99.32;58.13;;;5.50;99.90;;;;;;5096639;28;20368;-81
2022/03/24 02:39:42;;;;;;;99.18;56.70;;;5.50;99.90;;;;;;5096214;28;20048;-81
2022/03/24 02:42:13;;;;;;;99.00;57.10;;;5.50;99.90;;;;;;5096456;28;20039;-80
2022/03/24 02:44:39;;;;;;;94.82;55.90;;;5.50;99.90;;;;;;5096310;28;20040;-80
2022/03/24 02:47:06;;;;;;;112.07;59.67;;;5.50;99.90;;;;;;5094337;28;20040;-80
2022/03/24 02:49:33;;;;;;;100.88;57.40;;;5.50;99.90;;;;;;5095771;28;20055;-81
2022/03/24 02:52:00;;;;;;;104.05;55.90;;;5.40;99.90;;;;;;5094938;28;20032;-81
2022/03/24 02:54:28;;;;;;;99.18;56.42;;;5.40;99.90;;;;;;5094951;28;20043;-81
2022/03/24 02:56:54;;;;;;;91.57;54.78;;;5.40;99.90;;;;;;5086740;28;20120;-81
2022/03/24 02:59:21;;;;;;;97.50;56.28;;;5.40;99.90;;;;;;5084067;28;20583;-80
2022/03/24 03:02:06;;;;;;;102.10;55.90;;;5.40;99.90;;;;;;5075422;28;20079;-80
2022/03/24 03:04:32;;;;;;;98.65;57.55;;;5.40;99.90;;;;;;5088922;28;20055;-81
2022/03/24 03:06:59;;;;;;;98.88;55.13;;;5.40;99.90;;;;;;5097154;28;20036;-80
2022/03/24 03:09:25;;;;;;;100.45;58.88;;;5.40;99.90;;;;;;5077225;28;20059;-80
2022/03/24 03:11:52;;;;;;;115.00;60.92;;;5.40;99.90;;;;;;5089825;28;20074;-81
2022/03/24 03:14:18;;;;;;;101.97;55.38;;;5.30;99.90;;;;;;5095837;28;20045;-80
2022/03/24 03:16:44;;;;;;;106.70;59.13;;;5.30;99.90;;;;;;5077665;28;20372;-80
2022/03/24 03:19:11;;;;;;;107.50;60.05;;;5.30;99.90;;;;;;5084391;28;20119;-81
2022/03/24 03:21:41;;;;;;;101.22;57.67;;;5.20;99.90;;;;;;5101392;28;20044;-81
2022/03/24 03:24:08;;;;;;;92.15;52.22;;;5.20;99.90;;;;;;5103471;28;20063;-81
2022/03/24 03:26:34;;;;;;;97.35;53.78;;;5.20;99.90;;;;;;5109681;28;20063;-80
2022/03/24 03:29:00;;;;;;;104.55;57.95;;;5.20;99.90;;;;;;5110092;28;20047;-80
2022/03/24 03:31:28;;;;;;;104.55;58.35;;;5.20;99.90;;;;;;5103788;28;20121;-80
2022/03/24 03:33:54;;;;;;;103.30;55.40;;;5.10;99.90;;;;;;5098366;28;20059;-80
2022/03/24 03:36:21;;;;;;;106.90;59.75;;;5.10;99.90;;;;;;5103166;28;20047;-80
2022/03/24 03:38:48;;;;;;;107.03;59.67;;;5.10;99.90;;;;;;5111057;28;20039;-79
2022/03/24 03:41:15;;;;;;;109.18;60.50;;;5.10;99.90;;;;;;5094414;28;20044;-81
2022/03/24 03:43:41;;;;;;;110.55;59.75;;;6.00;99.90;;;;;;5077785;28;20079;-81
2022/03/24 03:46:08;;;;;;;102.15;57.00;;;5.00;99.90;;;;;;5075330;28;20384;-81
2022/03/24 03:48:35;;;;;;;107.55;59.85;;;5.00;99.90;;;;;;5075026;28;20483;-81
2022/03/24 03:51:01;;;;;;;122.97;65.90;;;4.90;99.90;;;;;;5074962;28;20055;-81
2022/03/24 03:53:27;;;;;;;118.82;65.03;;;5.00;99.90;;;;;;5087745;28;20385;-81
2022/03/24 03:55:53;;;;;;;117.18;61.63;;;5.00;99.90;;;;;;5093581;28;20051;-81
2022/03/24 03:58:18;;;;;;;102.82;59.03;;;5.00;99.90;;;;;;5093550;28;20042;-81
2022/03/24 04:00:53;;;;;;;110.97;59.63;;;5.00;99.90;;;;;;5094332;28;20467;-80
2022/03/24 04:03:27;;;;;;;112.63;62.97;;;4.90;99.90;;;;;;5093431;28;20044;-80
2022/03/24 04:05:54;;;;;;;121.05;64.53;;;4.90;99.90;;;;;;5095147;28;20043;-81
2022/03/24 04:08:20;;;;;;;113.78;63.33;;;5.80;99.90;;;;;;5094505;28;20390;-80
2022/03/24 04:10:48;;;;;;;110.65;60.95;;;4.90;99.90;;;;;;5095016;28;20417;-81
2022/03/24 04:13:15;;;;;;;;;;;4.90;99.90;;;;;;5093432;28;20076;-81
2022/03/24 04:15:40;;;;;;;115.63;62.50;;;4.90;99.90;;;;;;5094754;28;19924;-81
2022/03/24 04:18:06;;;;;;;117.88;65.15;;;4.90;99.90;;;;;;5094514;28;20047;-81
2022/03/24 04:20:32;;;;;;;108.20;58.22;;;4.90;99.90;;;;;;5094920;28;20100;-80
2022/03/24 04:23:03;;;;;;;104.65;56.95;;;4.80;99.90;;;;;;5077081;28;20463;-81
2022/03/24 04:25:29;;;;;;;107.88;57.80;;;4.80;99.90;;;;;;5098281;28;20047;-81
2022/03/24 04:27:55;;;;;;;109.07;60.72;;;4.80;99.90;;;;;;5104784;28;20031;-81
2022/03/24 04:30:21;;;;;;;103.55;59.45;;;4.70;99.90;;;;;;5101814;28;20089;-81
2022/03/24 04:32:48;;;;;;;119.90;61.47;;;4.70;99.90;;;;;;5084826;28;20044;-81
2022/03/24 04:35:15;;;;;;;109.43;61.00;;;4.80;99.90;;;;;;5096654;28;20098;-81
2022/03/24 04:37:42;;;;;;;106.00;59.92;;;4.80;99.90;;;;;;5094718;28;20044;-81
2022/03/24 04:40:11;;;;;;;108.13;60.35;;;4.80;99.90;;;;;;5094599;28;20441;-81
2022/03/24 04:42:37;;;;;;;103.97;57.65;;;4.80;99.90;;;;;;5094183;28;20052;-80
2022/03/24 04:45:04;;;;;;;110.05;60.45;;;4.80;99.90;;;;;;5093365;28;20051;-80
2022/03/24 04:47:29;;;;;;;113.53;61.45;;;4.70;99.90;;;;;;5092846;28;20044;-80
2022/03/24 04:49:55;;;;;;;99.15;57.15;;;4.70;99.90;;;;;;5096921;28;20039;-81
2022/03/24 04:52:22;;;;;;;109.25;60.05;;;4.70;99.90;;;;;;5096066;28;20055;-81
2022/03/24 04:54:48;;;;;;;113.57;61.30;;;4.60;99.90;;;;;;5098400;28;20162;-81
2022/03/24 04:57:13;;;;;;;109.28;60.60;;;4.60;99.90;;;;;;5094199;28;20123;-81
2022/03/24 04:59:39;;;;;;;105.50;59.75;;;4.60;99.90;;;;;;5099327;28;20050;-81
2022/03/24 05:02:08;;;;;;;110.15;60.75;;;5.10;99.90;;;;;;5094574;28;20555;-81
2022/03/24 05:04:34;;;;;;;;;;;4.60;99.90;;;;;;5130585;27;20055;-81
2022/03/24 05:07:00;;;;;;;110.25;61.08;;;4.50;99.90;;;;;;5095239;28;19920;-81
2022/03/24 05:09:25;;;;;;;110.60;57.63;;;4.50;99.90;;;;;;5096322;28;20403;-81
2022/03/24 05:11:51;;;;;;;105.20;55.95;;;4.50;99.90;;;;;;5096413;28;20402;-80
2022/03/24 05:14:17;;;;;;;113.88;61.35;;;4.50;99.90;;;;;;5096212;28;20455;-80
2022/03/24 05:16:42;;;;;;;113.25;62.72;;;4.50;99.90;;;;;;5095773;28;20422;-79
2022/03/24 05:19:08;;;;;;;107.13;58.83;;;4.40;99.90;;;;;;5095715;28;20127;-79
2022/03/24 05:21:34;;;;;;;118.10;62.80;;;4.40;99.90;;;;;;5095002;28;20087;-80
2022/03/24 05:24:00;;;;;;;118.32;63.55;;;4.40;99.90;;;;;;5075264;28;20391;-80
2022/03/24 05:26:26;;;;;;;112.90;63.03;;;4.40;99.90;;;;;;5096056;28;20402;-79
2022/03/24 05:28:52;;;;;;;107.80;58.58;;;4.40;99.90;;;;;;5096297;28;20040;-80
2022/03/24 05:31:18;;;;;;;101.63;56.63;;;4.40;99.90;;;;;;5096261;28;20040;-79
2022/03/24 05:33:45;;;;;;;108.30;61.08;;;4.40;99.90;;;;;;5096170;28;20040;-80
2022/03/24 05:36:11;;;;;;;108.13;58.25;;;4.40;99.90;;;;;;5094408;28;20089;-80
2022/03/24 05:38:37;;;;;;;116.88;64.07;;;4.40;99.90;;;;;;5096052;28;20040;-80
2022/03/24 05:41:04;;;;;;;108.78;60.83;;;5.80;99.90;;;;;;5096773;28;20043;-80
2022/03/24 05:43:31;;;;;;;106.70;60.38;;;4.40;99.90;;;;;;5096044;28;20043;-80
2022/03/24 05:45:57;;;;;;;118.70;63.55;;;4.40;99.90;;;;;;5097129;28;20504;-80
2022/03/24 05:48:23;;;;;;;111.03;62.47;;;4.40;99.90;;;;;;5094686;28;20162;-80
2022/03/24 05:50:48;;;;;;;121.93;64.47;;;4.40;99.90;;;;;;5096438;28;20047;-80
2022/03/24 05:53:14;;;;;;;122.10;64.20;;;4.40;99.90;;;;;;5093011;28;20089;-80
2022/03/24 05:55:40;;;;;;;114.13;61.90;;;4.40;99.90;;;;;;5091889;28;20032;-80
2022/03/24 05:58:07;;;;;;;115.47;61.15;;;4.90;99.90;;;;;;5093881;28;20113;-81
2022/03/24 06:00:36;;;;;;;114.07;61.67;;;4.50;99.90;;;;;;5088547;28;20040;-80
2022/03/24 06:03:03;;;;;;;106.93;60.03;;;4.50;99.90;;;;;;5089498;28;20123;-81
2022/03/24 06:05:29;;;;;;;110.15;60.65;;;4.50;99.90;;;;;;5092701;28;20044;-80
2022/03/24 06:07:56;;;;;;;105.60;59.30;;;4.50;99.90;;;;;;5092982;28;20063;-80
2022/03/24 06:10:22;;;;;;;107.07;59.17;;;4.50;99.90;;;;;;5087363;28;20489;-80
2022/03/24 06:12:47;;;;;;;104.07;58.50;;;4.60;99.90;;;;;;5094025;28;20032;-80
2022/03/24 06:15:13;;;;;;;107.50;60.83;;;4.70;99.90;;;;;;5094942;28;20131;-80
2022/03/24 06:17:39;;;;;;;105.13;58.38;;;4.70;99.90;;;;;;5096506;28;20135;-81
2022/03/24 06:20:08;;;;;;;100.72;56.60;;;5.10;99.90;;;;;;5097359;28;20047;-81
2022/03/24 06:22:51;;;;;;;113.30;60.80;;;4.80;99.90;;;;;;5095355;28;20051;-80
2022/03/24 06:25:17;;;;;;;102.60;59.22;;;4.90;99.90;;;;;;5102931;28;20044;-80
2022/03/24 06:27:43;;;;;;;98.93;57.50;;;4.90;99.90;;;;;;5102900;28;20055;-80
2022/03/24 06:30:09;;;;;;;103.60;59.80;;;5.00;99.90;;;;;;5095392;28;20044;-80
2022/03/24 06:38:45;;;;;;;99.60;57.97;;;5.70;99.90;;;;;;5008750;28;20046;-81
2022/03/24 06:41:56;;;;;;;97.47;55.95;;;7.40;99.90;;;;;;5010869;28;20049;-81
2022/03/24 06:44:44;;;;;;;95.45;56.83;;;6.00;99.90;;;;;;5038129;28;20075;-82
2022/03/24 06:47:13;;;;;;;109.63;57.25;;;7.40;99.90;;;;;;5016584;28;20531;-78
2022/03/24 06:49:49;;;;;;;;;;;;;;;;;;;;;
2022/03/24 06:53:01;;;;;;;102.60;58.50;;;6.80;99.90;;;;;;5031868;28;20053;-82
2022/03/24 06:55:48;;;;;;;105.13;58.80;;;6.90;99.90;;;;;;5014045;28;20046;-82
2022/03/24 06:58:19;;;;;;;102.85;59.22;;;7.10;99.90;;;;;;5019894;28;20044;-80
2022/03/24 07:01:08;;;;;;;;;;;;;;;;;;;;;
2022/03/24 07:03:37;;;;;;;93.32;54.88;;;9.70;99.90;;;;;;5007211;28;20061;-81
2022/03/24 07:06:15;;;;;;;94.78;55.28;;;8.20;99.90;;;;;;5000545;28;20043;-82
2022/03/24 07:08:54;;;;;;;88.78;54.22;;;8.60;99.90;;;;;;5039993;28;20102;-83
2022/03/24 07:11:22;;;;;;;88.68;53.63;;;7.60;99.90;;;;;;5012613;28;20037;-82
2022/03/24 07:13:59;;;;;;;90.50;53.67;;;8.90;99.90;;;;;;5000279;28;20518;-80
2022/03/24 07:16:31;;;;;;;88.70;51.88;;;9.00;99.90;;;;;;5032924;28;20084;-81
2022/03/24 07:19:45;;;;;;;90.65;51.00;;;10.40;99.90;;;;;;5002104;28;20083;-81
2022/03/24 07:22:21;;;;;;;80.13;49.63;;;9.60;99.90;;;;;;5026493;28;20052;-82
2022/03/24 07:24:52;;;;;;;80.88;48.28;;;9.50;99.90;;;;;;5043863;28;20137;-84
2022/03/24 07:27:47;;;;;;;;;;;;;;;;;;;;;
2022/03/24 07:30:46;;;;;;;82.45;49.10;;;10.20;99.90;;;;;;5024454;28;20053;-79
2022/03/24 07:33:20;;;;;;;86.00;49.97;;;9.10;99.90;;;;;;5012933;28;20109;-76
2022/03/24 07:36:45;;;;;;;76.30;49.53;;;10.10;99.90;;;;;;5037817;28;20041;-81
2022/03/24 07:39:41;;;;;;;77.22;49.70;;;9.10;99.90;;;;;;5025541;28;20053;-81
2022/03/24 07:42:44;;;;;;;81.45;51.05;;;9.80;99.90;;;;;;5016651;28;20047;-83
2022/03/24 07:45:35;;;;;;;;;;;;;;;;;;;;;
2022/03/24 07:48:30;;;;;;;;;;;;;;;;;;;;;
2022/03/24 07:51:44;;;;;;;;;;;;;;;;;;;;;
2022/03/24 07:54:11;;;;;;;77.75;48.17;;;9.70;99.90;;;;;;5001737;28;20091;-82
2022/03/24 07:56:40;;;;;;;77.85;49.78;;;10.30;99.90;;;;;;4997871;28;20069;-81
2022/03/24 07:59:52;;;;;;;83.38;47.10;;;11.80;99.90;;;;;;4988428;28;20050;-81
2022/03/24 08:03:09;;;;;;;74.45;45.30;;;10.80;99.90;;;;;;4992165;28;20040;-80
2022/03/24 08:06:01;;;;;;;66.18;41.60;;;10.60;99.90;;;;;;5029732;28;20175;-80
2022/03/24 08:08:41;;;;;;;68.95;41.40;;;9.90;99.90;;;;;;5005881;28;20049;-80
2022/03/24 08:11:10;;;;;;;68.80;43.72;;;11.60;99.90;;;;;;5016133;28;20412;-80
2022/03/24 08:13:50;;;;;;;73.95;45.72;;;10.80;99.90;;;;;;5000406;28;20131;-81
2022/03/24 08:16:24;;;;;;;70.25;45.15;;;11.20;99.90;;;;;;5034226;28;20042;-80
2022/03/24 08:19:06;;;;;;;;;;;;;;;;;;;;;
2022/03/24 08:22:08;;;;;;;70.78;45.45;;;11.20;99.90;;;;;;5033200;28;20049;-81
2022/03/24 08:24:36;;;;;;;69.88;46.05;;;10.10;99.90;;;;;;5007516;28;20055;-80
2022/03/24 08:27:07;;;;;;;70.82;45.33;;;11.70;99.90;;;;;;5019457;28;20052;-81
2022/03/24 08:29:59;;;;;;;72.82;44.97;;;11.50;99.90;;;;;;5028436;28;20041;-81
2022/03/24 08:32:25;;;;;;;69.63;45.05;;;11.60;99.90;;;;;;5009385;28;20095;-82
2022/03/24 08:35:12;;;;;;;62.30;42.42;;;12.60;99.90;;;;;;5032391;28;20194;-80
2022/03/24 08:37:43;;;;;;;67.82;44.65;;;11.20;99.90;;;;;;5002234;28;20052;-80
2022/03/24 08:40:18;;;;;;;73.38;43.45;;;11.40;99.90;;;;;;5001525;28;20049;-80
2022/03/24 08:42:54;;;;;;;66.78;42.88;;;10.70;99.90;;;;;;5001384;28;20049;-80
2022/03/24 08:45:39;;;;;;;74.00;43.15;;;13.10;99.90;;;;;;5013896;28;20045;-81
2022/03/24 08:48:35;;;;;;;68.60;42.40;;;12.20;99.90;;;;;;4998705;28;20068;-80
2022/03/24 08:51:15;;;;;;;76.10;43.53;;;10.90;99.90;;;;;;5010430;28;20053;-79
2022/03/24 08:54:17;;;;;;;67.97;45.35;;;12.30;99.90;;;;;;4994256;28;20116;-80
2022/03/24 08:57:26;;;;;;;71.57;44.15;;;13.70;99.90;;;;;;5029507;28;20046;-82
2022/03/24 09:03:28;;;;;;;70.43;45.00;;;12.70;99.90;;;;;;5011406;28;20111;-80
2022/03/24 09:06:07;;;;;;;65.40;44.70;;;14.40;99.90;;;;;;5016392;28;20128;-78
2022/03/24 09:08:43;;;;;;;66.03;44.05;;;13.00;99.90;;;;;;5003247;28;20060;-80
2022/03/24 09:11:28;;;;;;;69.57;44.10;;;14.00;99.90;;;;;;5020207;28;20044;-79
2022/03/24 09:14:10;;;;;;;68.32;46.70;;;14.70;99.90;;;;;;5016718;28;20108;-80
2022/03/24 09:16:57;;;;;;;67.07;43.90;;;13.50;99.90;;;;;;5016642;28;20054;-81
2022/03/24 09:19:26;;;;;;;66.72;41.08;;;12.90;99.90;;;;;;4998006;28;20527;-80
2022/03/24 09:22:03;;;;;;;67.10;41.67;;;14.90;99.90;;;;;;5016651;28;20054;-80
2022/03/24 09:24:32;;;;;;;63.22;41.00;;;13.80;99.90;;;;;;5017733;28;20097;-80
2022/03/24 09:27:11;;;;;;;69.43;41.72;;;14.50;99.90;;;;;;5038754;28;20515;-79
2022/03/24 09:29:47;;;;;;;68.97;44.40;;;15.60;99.90;;;;;;5030077;28;20049;-80
2022/03/24 09:32:41;;;;;;;68.25;41.72;;;14.20;99.70;;;;;;5027027;28;20061;-82
2022/03/24 09:35:12;;;;;;;64.72;42.42;;;13.80;98.90;;;;;;5020555;28;20061;-82
2022/03/24 09:37:41;;;;;;;69.50;41.10;;;14.40;99.30;;;;;;4988984;28;20492;-81
2022/03/24 09:40:15;;;;;;;66.75;41.92;;;13.60;99.20;;;;;;5005734;28;20056;-80
2022/03/24 09:42:46;;;;;;;71.35;41.25;;;14.60;99.10;;;;;;5021056;28;20072;-79
2022/03/24 09:45:31;;;;;;;;;;;;;;;;;;;;;
2022/03/24 09:48:20;;;;;;;;;;;;;;;;;;;;;
2022/03/24 09:51:09;;;;;;;68.17;43.67;;;15.40;97.80;;;;;;5048853;28;20076;-81
2022/03/24 09:53:51;;;;;;;;;;;;;;;;;;;;;
2022/03/24 09:56:22;;;;;;;69.05;44.38;;;16.20;97.00;;;;;;5039229;28;20041;-81
2022/03/24 09:58:59;;;;;;;70.28;43.10;;;15.70;97.50;;;;;;5042583;28;20064;-80
2022/03/24 10:01:54;;;;;;;73.85;44.03;;;17.20;97.80;;;;;;5024043;28;20057;-80
2022/03/24 10:05:07;;;;;;;62.75;43.13;;;16.30;96.90;;;;;;4977539;28;20130;-81
2022/03/24 10:08:11;;;;;;;64.10;42.88;;;16.40;96.70;;;;;;5022610;28;20163;-81
2022/03/24 10:11:27;;;;;;;;;;;;;;;;;;;;;
2022/03/24 10:14:53;;;;;;;63.15;44.15;;;17.00;94.40;;;;;;5032882;28;20129;-81
2022/03/24 10:18:14;;;;;;;63.13;41.33;;;16.60;94.80;;;;;;5005906;28;20050;-82
2022/03/24 10:29:47;;;;;;;56.28;39.47;;;17.60;92.50;;;;;;4835657;29;20054;-80
2022/03/24 10:36:38;;;;;;;;;;;;;;;;;;;;;
2022/03/24 10:39:29;;;;;;;60.10;39.78;;;17.70;86.70;;;;;;4959447;29;20047;-81
2022/03/24 10:42:59;;;;;;;;;;;;;;;;;;;;;
2022/03/24 10:46:45;;;;;;;;;;;;;;;;;;;;;
2022/03/24 11:00:11;;;;;;;52.70;36.33;;;19.70;77.20;;;;;;4910483;28;20068;-82
2022/03/24 11:02:58;;;;;;;48.47;29.27;;;19.20;77.30;;;;;;5004297;28;20307;-82
2022/03/24 11:06:32;;;;;;;48.83;30.88;;;19.50;72.40;;;;;;4995015;28;20117;-81
2022/03/24 11:09:22;;;;;;;42.72;30.52;;;20.10;69.30;;;;;;4943879;28;20046;-82
2022/03/24 11:12:11;;;;;;;45.42;30.95;;;19.70;70.10;;;;;;4953962;29;20093;-81
2022/03/24 11:14:54;;;;;;;44.33;30.85;;;20.10;67.70;;;;;;4939574;29;20055;-81
2022/03/24 11:17:27;;;;;;;51.65;31.77;;;20.20;66.60;;;;;;4955189;29;20043;-81
2022/03/24 11:20:18;;;;;;;48.90;30.95;;;20.60;66.30;;;;;;4942878;29;20164;-84
2022/03/24 11:23:16;;;;;;;42.97;31.63;;;20.40;65.20;;;;;;4923560;29;20142;-82
2022/03/24 11:26:08;;;;;;;47.88;33.97;;;20.00;64.80;;;;;;4920556;29;20097;-81
2022/03/24 11:29:04;;;;;;;44.33;30.65;;;20.30;65.70;;;;;;4951917;28;20059;-81
2022/03/24 11:31:43;;;;;;;47.28;32.08;;;20.60;65.60;;;;;;4934981;29;20224;-80
2022/03/24 11:34:22;;;;;;;51.65;32.97;;;20.00;63.30;;;;;;4958871;28;20075;-81
2022/03/24 11:37:11;;;;;;;49.47;33.63;;;20.90;63.80;;;;;;4956281;28;20137;-82
2022/03/24 11:40:02;;;;;;;52.58;34.35;;;20.90;62.10;;;;;;4973065;28;20057;-81
2022/03/24 11:42:56;;;;;;;48.42;35.17;;;21.70;60.60;;;;;;5009125;28;20058;-82
2022/03/24 11:46:09;;;;;;;;;;;;;;;;;;;;;
2022/03/24 11:48:53;;;;;;;44.30;34.00;;;21.20;60.40;;;;;;5025503;28;20117;-83
2022/03/24 11:51:53;;;;;;;49.03;31.60;;;22.80;60.50;;;;;;5030361;28;20042;-83
2022/03/24 11:54:57;;;;;;;52.72;34.55;;;21.50;59.50;;;;;;5019585;28;20042;-84
2022/03/24 11:57:26;;;;;;;48.45;34.22;;;21.70;59.90;;;;;;5008471;28;20054;-82
2022/03/24 12:00:14;;;;;;;46.20;34.88;;;21.70;60.00;;;;;;5013320;28;20061;-82
2022/03/24 12:02:40;;;;;;;52.17;34.70;;;21.80;60.40;;;;;;5013398;28;20128;-82
2022/03/24 12:05:44;;;;;;;;;;;;;;;;;;;;;
2022/03/24 12:09:34;;;;;;;;;;;;;;;;;;;;;
2022/03/24 12:12:28;;;;;;;;;;;;;;;;;;;;;
2022/03/24 12:15:39;;;;;;;43.92;32.42;;;22.00;56.40;;;;;;5012614;28;20077;-82
2022/03/24 12:18:18;;;;;;;;;;;;;;;;;;;;;
2022/03/24 12:24:18;;;;;;;41.22;30.30;;;21.90;55.10;;;;;;5017465;28;20050;-83
2022/03/24 12:27:29;;;;;;;40.10;29.70;;;21.90;54.90;;;;;;5026186;28;20049;-82
2022/03/24 12:30:31;;;;;;;39.60;28.58;;;21.50;53.90;;;;;;5015488;28;20145;-83
2022/03/24 12:33:21;;;;;;;40.75;32.05;;;22.40;54.10;;;;;;5007180;28;20054;-83
2022/03/24 12:36:13;;;;;;;45.45;32.55;;;21.80;53.50;;;;;;4997588;28;20057;-82
2022/03/24 12:39:12;;;;;;;44.38;31.60;;;21.90;54.50;;;;;;4994210;28;20141;-82
2022/03/24 12:42:43;;;;;;;43.60;32.33;;;21.90;53.40;;;;;;4986243;28;20696;-82
2022/03/24 12:45:26;;;;;;;44.92;31.17;;;21.60;53.60;;;;;;4968235;28;20058;-82
2022/03/24 12:51:53;;;;;;;;;;;;;;;;;;;;;
2022/03/24 12:54:55;;;;;;;;;;;;;;;;;;;;;
2022/03/24 12:57:51;;;;;;;;;;;;;;;;;;;;;
2022/03/24 13:01:00;;;;;;;;;;;;;;;;;;;;;
2022/03/24 13:03:40;;;;;;;44.70;29.17;;;21.50;50.80;;;;;;4998636;28;20070;-81
2022/03/24 13:06:12;;;;;;;44.60;30.10;;;21.20;51.10;;;;;;4978914;28;20111;-82
2022/03/24 13:09:01;;;;;;;49.55;32.60;;;21.40;49.80;;;;;;4981755;28;20360;-82
2022/03/24 13:11:38;;;;;;;48.88;32.53;;;21.20;50.50;;;;;;4978039;28;20134;-82
2022/03/24 13:14:33;;;;;;;41.60;32.20;;;21.30;51.30;;;;;;4995245;28;20042;-81
2022/03/24 13:17:14;;;;;;;49.25;30.98;;;21.30;49.80;;;;;;5010942;28;20390;-82
2022/03/24 13:19:43;;;;;;;44.10;30.02;;;20.60;50.40;;;;;;5021283;28;20088;-83
2022/03/24 13:23:01;;;;;;;;;;;;;;;;;;;;;
2022/03/24 13:26:08;;;;;;;47.60;30.27;;;19.50;51.10;;;;;;5029324;28;20108;-81
2022/03/24 13:29:28;;;;;;;43.72;33.90;;;18.60;53.90;;;;;;5004709;28;20468;-81
2022/03/24 13:31:53;;;;;;;49.38;34.10;;;18.20;54.30;;;;;;5000617;28;20065;-80
2022/03/24 13:34:39;;;;;;;62.63;35.85;;;17.60;56.00;;;;;;5028759;28;20058;-82
2022/03/24 13:37:39;;;;;;;51.53;34.28;;;17.60;56.50;;;;;;5017062;28;20100;-80
2022/03/24 13:40:56;;;;;;;56.30;36.10;;;17.10;56.80;;;;;;5019633;28;20053;-80
2022/03/24 13:44:11;;;;;;;54.95;38.13;;;16.80;58.50;;;;;;4931300;29;20074;-82
2022/03/24 13:47:01;;;;;;;56.35;35.35;;;15.90;58.00;;;;;;4856309;29;20085;-81
2022/03/24 13:50:03;;;;;;;56.50;37.95;;;16.30;58.70;;;;;;4867951;29;20098;-81
2022/03/24 13:56:17;;;;;;;59.35;38.83;;;15.70;59.40;;;;;;4878428;29;20056;-81
2022/03/24 13:59:18;;;;;;;60.58;40.25;;;15.90;60.20;;;;;;4897391;29;20064;-81
2022/03/24 14:02:27;;;;;;;67.15;41.08;;;15.90;60.70;;;;;;5014441;28;20100;-81
2022/03/24 14:05:12;;;;;;;63.45;41.78;;;15.90;62.10;;;;;;4976736;28;20065;-82
2022/03/24 14:08:08;;;;;;;64.45;40.60;;;15.70;62.30;;;;;;4994427;28;20065;-82
2022/03/24 14:11:11;;;;;;;;;;;;;;;;;;;;;
2022/03/24 14:14:17;;;;;;;63.17;41.80;;;15.50;62.70;;;;;;5027199;28;20137;-82
2022/03/24 14:17:11;;;;;;;;;;;;;;;;;;;;;
2022/03/24 14:19:55;;;;;;;67.32;41.88;;;16.10;63.90;;;;;;5000946;28;20552;-80
2022/03/24 14:22:37;;;;;;;61.78;39.58;;;16.70;64.90;;;;;;5045825;28;20034;-81
2022/03/24 14:25:43;;;;;;;63.60;39.03;;;15.70;64.30;;;;;;5040420;28;20102;-81
2022/03/24 14:29:21;;;;;;;;;;;;;;;;;;;;;
2022/03/24 14:32:22;;;;;;;54.40;34.58;;;15.30;63.90;;;;;;5023176;28;20526;-79
2022/03/24 14:35:33;;;;;;;63.75;35.80;;;15.10;64.50;;;;;;5003043;28;20054;-82
2022/03/24 14:38:21;;;;;;;54.15;31.27;;;15.20;64.20;;;;;;5017422;28;20052;-81
2022/03/24 14:41:29;;;;;;;;;;;;;;;;;;;;;
2022/03/24 14:47:23;;;;;;;52.22;31.05;;;15.10;63.50;;;;;;5004176;28;20164;-82
2022/03/24 14:50:50;;;;;;;60.35;36.70;;;14.20;63.00;;;;;;5016920;28;20407;-82